Hlavní strana
METAR-TAF:

METAR-TAF

Letiště :

Gällivare, Švédsko

zeměpisná šířka: 67-09N, zeměpisná délka: 020-39E, výška: 359 m

Aktuální stav počasí

Zpráva byla vytvořena před 16 minutami, v 20:20 UTC
Východojihovýchodní vítr 6 kt
Teplota -7°C
Vlhkost vzduchu 93%
Tlak 1012 hPa
Viditelnost: 9000 m
Zataženo ve výšce 400 ft

METAR: ESNG 122020Z 11006KT 9000 OVC004 M07/M08 Q1012

Čas: 21:36 (20:36 UTC)

Předpověď počasí

Zpráva byla vytvořena před 17 minutami, v 20:19 UTC
Předpověď platná od 12 v 20 UTC do 12 v 22 UTC
Jihovýchodní vítr 5 kt
Viditelnost: 5000 m
Oblačno až skoro zataženo ve výšce 300 ft
slabé sněžení
Dočasný
od 12 v 20 UTC do 12 v 22 UTC
Viditelnost: 1200 m
ve výšce 1500 ft
sníh

TAF: ESNG 122019Z 1220/1222 14005KT 5000 -SN BKN003 TEMPO 1220/1222 1200 SN VV015

Stav a předpovědi počasí z více než 4 000 letišť (zprávy METAR a TAF).

Červené a žluté tečky na mapě představují dostupné meteorologické stanice.

Když kurzor umístíte na tečku, zobrazí se název stanice.

Pak kliknutím zobrazíte stav a předpověď počasí.

Chcete-li změnit mapu, kliknutím na zelené tlačítko se znaménkem +mapu přiblížíte, kliknutím na zelené tlačítko se znaménkem – mapu oddálíte a kliknutím na zelené šipky přejdete na sousední mapy.


METAR-TAF: